Time;durP1;ratioP1;P1;durP2;ratioP2;P2;SDS_P1;SDS_P2;PMS_P1;PMS_P2;Temp;Humidity;BMP_temperature;BMP_pressure;BME280_temperature;BME280_humidity;BME280_pressure;Samples;Min_cycle;Max_cycle;Signal;HPM_P1;HPM_P2
2022/01/19 00:00:44;;;;;;;16.83;6.68;;;;;;;;;;4994467;28;20106;-39
2022/01/19 00:03:10;;;;;;;12.55;6.03;;;;;;;;;;4993982;28;20130;-38
2022/01/19 00:05:36;;;;;;;11.25;5.78;;;;;;;;;;4994161;28;20384;-39
2022/01/19 00:08:03;;;;;;;16.30;6.07;;;;;;;;;;4994363;28;20046;-39
2022/01/19 00:10:28;;;;;;;16.25;5.45;;;;;;;;;;4993979;28;20066;-40
2022/01/19 00:12:57;;;;;;;14.18;5.20;;;;;;;;;;4994244;28;20054;-38
2022/01/19 00:15:24;;;;;;;12.98;4.82;;;;;;;;;;4993977;28;20022;-38
2022/01/19 00:17:54;;;;;;;11.88;5.25;;;;;;;;;;4993973;28;20038;-39
2022/01/19 00:20:21;;;;;;;16.83;5.28;;;;;;;;;;4993852;28;20030;-39
2022/01/19 00:22:46;;;;;;;25.95;5.40;;;;;;;;;;4994124;28;20064;-38
2022/01/19 00:25:12;;;;;;;15.35;5.22;;;;;;;;;;4993809;28;20073;-39
2022/01/19 00:27:37;;;;;;;25.65;5.95;;;;;;;;;;4993698;28;20482;-38
2022/01/19 00:30:04;;;;;;;12.43;5.65;;;;;;;;;;4993602;28;20057;-39
2022/01/19 00:32:29;;;;;;;11.77;5.35;;;;;;;;;;4992736;28;20026;-39
2022/01/19 00:34:55;;;;;;;10.98;4.88;;;;;;;;;;4993608;28;20105;-40
2022/01/19 00:37:21;;;;;;;15.85;5.55;;;;;;;;;;4993842;28;20038;-38
2022/01/19 00:39:46;;;;;;;12.82;4.72;;;;;;;;;;4993791;28;20206;-39
2022/01/19 00:42:12;;;;;;;16.27;5.45;;;;;;;;;;4993762;28;20023;-38
2022/01/19 00:44:38;;;;;;;18.85;6.15;;;;;;;;;;4993755;28;20065;-39
2022/01/19 00:47:04;;;;;;;20.00;5.28;;;;;;;;;;4993687;28;20030;-39
2022/01/19 00:49:30;;;;;;;18.60;5.60;;;;;;;;;;4993673;28;20030;-39
2022/01/19 00:51:55;;;;;;;20.10;5.63;;;;;;;;;;4993323;28;20438;-39
2022/01/19 00:54:20;;;;;;;19.23;5.75;;;;;;;;;;4993314;28;20109;-38
2022/01/19 00:56:46;;;;;;;15.20;5.70;;;;;;;;;;4993612;28;20507;-39
2022/01/19 00:59:11;;;;;;;12.57;4.82;;;;;;;;;;4992021;28;20446;-44
2022/01/19 01:01:37;;;;;;;16.90;5.30;;;;;;;;;;4993098;28;20134;-39
2022/01/19 01:04:03;;;;;;;14.98;6.05;;;;;;;;;;4993575;28;20030;-38
2022/01/19 01:06:29;;;;;;;10.95;4.85;;;;;;;;;;4993469;28;20466;-39
2022/01/19 01:08:55;;;;;;;15.85;5.10;;;;;;;;;;4993371;28;20042;-38
2022/01/19 01:11:28;;;;;;;24.02;6.43;;;;;;;;;;4993015;28;20085;-41
2022/01/19 01:16:35;;;;;;;17.17;5.82;;;;;;;;;;4993115;28;20062;-39
2022/01/19 01:19:03;;;;;;;24.88;5.40;;;;;;;;;;4993358;28;20050;-41
2022/01/19 01:21:28;;;;;;;18.08;5.80;;;;;;;;;;4992983;28;20414;-38
2022/01/19 01:23:54;;;;;;;22.40;5.78;;;;;;;;;;4992982;28;20026;-38
2022/01/19 01:26:19;;;;;;;25.60;6.28;;;;;;;;;;4992978;28;20029;-38
2022/01/19 01:28:45;;;;;;;17.65;5.13;;;;;;;;;;4993268;28;20065;-42
2022/01/19 01:31:10;;;;;;;22.05;6.05;;;;;;;;;;4992824;28;20065;-44
2022/01/19 01:33:37;;;;;;;16.10;5.82;;;;;;;;;;4993245;28;20038;-39
2022/01/19 01:36:03;;;;;;;21.15;6.70;;;;;;;;;;4993314;28;20378;-39
2022/01/19 01:38:29;;;;;;;10.15;4.82;;;;;;;;;;4993173;28;20038;-39
2022/01/19 01:40:54;;;;;;;12.48;5.93;;;;;;;;;;4993194;28;20475;-38
2022/01/19 01:43:20;;;;;;;18.77;5.75;;;;;;;;;;4993141;28;20053;-38
2022/01/19 01:45:49;;;;;;;16.60;5.90;;;;;;;;;;4997018;28;20077;-40
2022/01/19 01:48:18;;;;;;;11.50;5.60;;;;;;;;;;4996959;28;20026;-39
2022/01/19 01:53:31;;;;;;;17.20;5.57;;;;;;;;;;4996887;28;20097;-40
2022/01/19 01:56:00;;;;;;;22.60;5.03;;;;;;;;;;4996545;28;20022;-45
2022/01/19 01:58:28;;;;;;;12.38;4.45;;;;;;;;;;4996812;28;20061;-39
2022/01/19 02:00:55;;;;;;;9.95;3.53;;;;;;;;;;4996748;28;20022;-40
2022/01/19 02:03:21;;;;;;;13.50;5.63;;;;;;;;;;4996673;28;20038;-39
2022/01/19 02:08:38;;;;;;;17.77;5.20;;;;;;;;;;4996665;28;20072;-39
2022/01/19 02:16:36;;;;;;;17.00;5.35;;;;;;;;;;4996453;28;20036;-39
2022/01/19 02:22:03;;;;;;;8.90;4.28;;;;;;;;;;4996366;28;20034;-40
2022/01/19 02:24:33;;;;;;;13.82;5.00;;;;;;;;;;4996341;28;20038;-40
2022/01/19 02:27:13;;;;;;;16.38;5.50;;;;;;;;;;4996009;28;20030;-38
2022/01/19 02:40:25;;;;;;;8.88;3.33;;;;;;;;;;4996100;28;20037;-38
2022/01/19 02:43:07;;;;;;;13.85;5.72;;;;;;;;;;4995715;28;20368;-39
2022/01/19 02:51:05;;;;;;;8.82;4.72;;;;;;;;;;4995657;28;20036;-39
2022/01/19 02:53:35;;;;;;;10.20;4.72;;;;;;;;;;4994563;28;20030;-41
2022/01/19 02:56:06;;;;;;;12.85;4.88;;;;;;;;;;4994670;28;20076;-40
2022/01/19 02:58:32;;;;;;;7.55;2.25;;;;;;;;;;4995740;28;20069;-42
2022/01/19 03:08:57;;;;;;;14.35;4.78;;;;;;;;;;4995551;28;20027;-39
2022/01/19 03:11:24;;;;;;;15.25;5.43;;;;;;;;;;4995376;28;20034;-41
2022/01/19 03:13:50;;;;;;;15.95;4.85;;;;;;;;;;4995395;28;20026;-39
2022/01/19 03:16:19;;;;;;;11.40;3.17;;;;;;;;;;4995397;28;20030;-43
2022/01/19 03:18:46;;;;;;;11.57;4.80;;;;;;;;;;4995241;28;20037;-39
2022/01/19 03:21:11;;;;;;;10.55;3.50;;;;;;;;;;4995197;28;20026;-41
2022/01/19 03:23:37;;;;;;;7.45;4.20;;;;;;;;;;4994942;28;20368;-38
2022/01/19 03:26:06;;;;;;;13.63;3.70;;;;;;;;;;4994920;28;20089;-43
2022/01/19 03:28:32;;;;;;;13.32;4.60;;;;;;;;;;4994782;28;20483;-38
2022/01/19 03:30:58;;;;;;;25.85;6.57;;;;;;;;;;4995027;28;20042;-42
2022/01/19 03:33:23;;;;;;;18.65;5.45;;;;;;;;;;4994756;28;20479;-38
2022/01/19 03:35:48;;;;;;;7.90;2.92;;;;;;;;;;4995081;28;20022;-40
2022/01/19 03:38:14;;;;;;;12.95;6.07;;;;;;;;;;4994687;28;20041;-39
2022/01/19 03:40:40;;;;;;;5.95;3.70;;;;;;;;;;4994677;28;20034;-41
2022/01/19 03:43:06;;;;;;;10.68;4.97;;;;;;;;;;4994924;28;20042;-38
2022/01/19 03:45:33;;;;;;;15.63;6.13;;;;;;;;;;4994845;28;20069;-39
2022/01/19 03:48:22;;;;;;;14.18;4.88;;;;;;;;;;4994456;28;20494;-38
2022/01/19 03:50:48;;;;;;;5.80;4.45;;;;;;;;;;4994346;28;20089;-38
2022/01/19 03:53:14;;;;;;;23.40;6.05;;;;;;;;;;4994680;28;20018;-40
2022/01/19 03:55:39;;;;;;;16.67;5.57;;;;;;;;;;4994262;28;20105;-38
2022/01/19 03:58:05;;;;;;;10.90;4.80;;;;;;;;;;4994833;28;20117;-37
2022/01/19 04:00:34;;;;;;;9.23;5.40;;;;;;;;;;4993377;28;20026;-40
2022/01/19 04:03:00;;;;;;;24.60;5.27;;;;;;;;;;4994099;28;20051;-39
2022/01/19 04:05:40;;;;;;;8.65;3.35;;;;;;;;;;4994460;28;20140;-43
2022/01/19 04:08:05;;;;;;;13.38;5.65;;;;;;;;;;4993940;28;20026;-39
2022/01/19 04:10:31;;;;;;;12.25;4.68;;;;;;;;;;4994198;28;20113;-39
2022/01/19 04:13:09;;;;;;;8.18;3.10;;;;;;;;;;4994300;28;20122;-38
2022/01/19 04:15:36;;;;;;;10.23;5.03;;;;;;;;;;4994235;28;20026;-44
2022/01/19 04:18:05;;;;;;;17.02;5.47;;;;;;;;;;4994233;28;20069;-40
2022/01/19 04:20:37;;;;;;;22.35;6.38;;;;;;;;;;4993865;28;20398;-40
2022/01/19 04:23:03;;;;;;;16.77;5.25;;;;;;;;;;4994161;28;20034;-40
2022/01/19 04:25:28;;;;;;;22.02;5.65;;;;;;;;;;4993761;28;20030;-38
2022/01/19 04:27:54;;;;;;;26.48;5.88;;;;;;;;;;4993673;28;20062;-38
2022/01/19 04:30:21;;;;;;;22.80;5.90;;;;;;;;;;4992396;28;20030;-38
2022/01/19 04:35:27;;;;;;;13.63;5.38;;;;;;;;;;4994065;28;20062;-42
2022/01/19 04:38:25;;;;;;;13.85;4.93;;;;;;;;;;4993625;28;20022;-43
2022/01/19 04:54:34;;;;;;;10.45;4.55;;;;;;;;;;4993637;28;20030;-39
2022/01/19 05:07:52;;;;;;;15.43;6.50;;;;;;;;;;4993510;28;20200;-38
2022/01/19 05:15:46;;;;;;;7.20;2.90;;;;;;;;;;4993323;28;20152;-40
2022/01/19 05:18:12;;;;;;;16.38;5.22;;;;;;;;;;4994410;28;20026;-45
2022/01/19 05:20:38;;;;;;;15.98;7.13;;;;;;;;;;4999586;28;20430;-41
2022/01/19 05:23:04;;;;;;;13.70;5.03;;;;;;;;;;4999553;28;20053;-40
2022/01/19 05:25:30;;;;;;;10.25;5.38;;;;;;;;;;4999373;28;20026;-38
2022/01/19 05:27:55;;;;;;;18.42;6.75;;;;;;;;;;4998155;28;20030;-38
2022/01/19 05:30:22;;;;;;;7.43;4.50;;;;;;;;;;4999355;28;20034;-38
2022/01/19 05:32:47;;;;;;;20.60;6.68;;;;;;;;;;4999744;28;20040;-40
2022/01/19 05:35:13;;;;;;;19.88;7.90;;;;;;;;;;4999781;28;20113;-45
2022/01/19 05:37:39;;;;;;;16.23;5.18;;;;;;;;;;4999392;28;20466;-45
2022/01/19 05:40:07;;;;;;;16.73;7.03;;;;;;;;;;4999477;28;20040;-46
2022/01/19 05:42:33;;;;;;;15.68;6.60;;;;;;;;;;4999380;28;20045;-38
2022/01/19 05:44:59;;;;;;;15.55;7.43;;;;;;;;;;4999560;28;20030;-38
2022/01/19 05:47:24;;;;;;;26.67;7.72;;;;;;;;;;4999592;28;20022;-44
2022/01/19 05:49:50;;;;;;;11.23;5.82;;;;;;;;;;4999455;28;20138;-38
2022/01/19 05:52:16;;;;;;;9.98;4.85;;;;;;;;;;4999567;28;20359;-46
2022/01/19 05:54:41;;;;;;;7.43;4.03;;;;;;;;;;4999196;28;20022;-38
2022/01/19 05:57:07;;;;;;;12.77;5.47;;;;;;;;;;4999149;28;20509;-38
2022/01/19 05:59:33;;;;;;;15.95;4.72;;;;;;;;;;4999134;28;20058;-39
2022/01/19 06:01:59;;;;;;;20.38;7.70;;;;;;;;;;4998963;28;20517;-38
2022/01/19 06:04:25;;;;;;;14.57;6.85;;;;;;;;;;4999486;28;20134;-43
2022/01/19 06:06:53;;;;;;;24.73;7.35;;;;;;;;;;4999203;28;20034;-44
2022/01/19 06:12:05;;;;;;;14.10;6.50;;;;;;;;;;4999328;28;20528;-46
2022/01/19 06:14:32;;;;;;;11.60;4.78;;;;;;;;;;4999231;28;20038;-41
2022/01/19 06:16:58;;;;;;;6.97;4.05;;;;;;;;;;4999291;28;20042;-44
2022/01/19 06:19:24;;;;;;;15.75;5.60;;;;;;;;;;4998988;28;20029;-47
2022/01/19 06:21:50;;;;;;;20.95;6.82;;;;;;;;;;4999096;28;20030;-47
2022/01/19 06:24:16;;;;;;;26.98;7.05;;;;;;;;;;4998845;28;20034;-39
2022/01/19 06:26:41;;;;;;;11.85;5.68;;;;;;;;;;4999118;28;20430;-40
2022/01/19 06:29:06;;;;;;;17.95;5.68;;;;;;;;;;4998845;28;20042;-42
2022/01/19 06:31:32;;;;;;;18.80;6.38;;;;;;;;;;4995825;28;20097;-44
2022/01/19 06:33:57;;;;;;;11.30;7.00;;;;;;;;;;4995871;28;20033;-48
2022/01/19 06:36:23;;;;;;;22.35;7.90;;;;;;;;;;4995982;28;20026;-47
2022/01/19 06:38:49;;;;;;;20.10;6.95;;;;;;;;;;4995908;28;20105;-39
2022/01/19 06:41:14;;;;;;;19.73;8.88;;;;;;;;;;4995498;28;20026;-47
2022/01/19 06:43:40;;;;;;;20.38;9.18;;;;;;;;;;4995528;28;20069;-49
2022/01/19 06:46:05;;;;;;;20.05;8.18;;;;;;;;;;4995826;28;20022;-45
2022/01/19 06:48:31;;;;;;;20.85;7.18;;;;;;;;;;4995764;28;20382;-40
2022/01/19 06:50:57;;;;;;;14.88;7.22;;;;;;;;;;4995778;28;20113;-43
2022/01/19 06:53:22;;;;;;;18.35;8.20;;;;;;;;;;4995390;28;20065;-46
2022/01/19 06:55:47;;;;;;;22.98;8.25;;;;;;;;;;4995315;28;20061;-45
2022/01/19 06:58:13;;;;;;;20.63;7.93;;;;;;;;;;4995349;28;20022;-42
2022/01/19 07:00:39;;;;;;;16.50;7.72;;;;;;;;;;4995454;28;20164;-42
2022/01/19 07:03:05;;;;;;;12.10;6.47;;;;;;;;;;4995034;28;20065;-43
2022/01/19 07:05:30;;;;;;;25.65;8.63;;;;;;;;;;4995368;28;20042;-38
2022/01/19 07:07:57;;;;;;;13.23;6.53;;;;;;;;;;4993852;28;20026;-48
2022/01/19 07:10:24;;;;;;;17.27;7.22;;;;;;;;;;4993878;28;20037;-41
2022/01/19 07:12:50;;;;;;;12.15;5.97;;;;;;;;;;4995085;28;20022;-47
2022/01/19 07:15:15;;;;;;;17.98;7.32;;;;;;;;;;4994977;28;20034;-38
2022/01/19 07:17:41;;;;;;;20.33;7.80;;;;;;;;;;4993954;28;20022;-47
2022/01/19 07:20:07;;;;;;;18.45;7.65;;;;;;;;;;4995411;28;20053;-48
2022/01/19 07:22:33;;;;;;;22.67;9.35;;;;;;;;;;4995140;28;20062;-45
2022/01/19 07:25:01;;;;;;;23.70;8.57;;;;;;;;;;4995343;28;20050;-45
2022/01/19 07:27:27;;;;;;;20.75;8.70;;;;;;;;;;4993982;28;20049;-43
2022/01/19 07:29:52;;;;;;;17.55;8.55;;;;;;;;;;4994742;28;20451;-46
2022/01/19 07:32:19;;;;;;;19.20;7.47;;;;;;;;;;4994896;28;20022;-43
2022/01/19 07:34:44;;;;;;;19.25;8.45;;;;;;;;;;4994632;28;20022;-50
2022/01/19 07:37:11;;;;;;;20.92;8.60;;;;;;;;;;4994853;28;20026;-48
2022/01/19 07:39:37;;;;;;;25.58;8.07;;;;;;;;;;4994607;28;20061;-39
2022/01/19 07:42:03;;;;;;;15.75;7.70;;;;;;;;;;4994193;28;20061;-45
2022/01/19 07:44:28;;;;;;;29.35;7.68;;;;;;;;;;4994425;28;20105;-43
2022/01/19 07:46:54;;;;;;;18.35;7.35;;;;;;;;;;4994668;28;20516;-43
2022/01/19 07:49:19;;;;;;;18.73;8.02;;;;;;;;;;4994656;28;20049;-40
2022/01/19 07:51:45;;;;;;;22.30;8.10;;;;;;;;;;4994526;28;20034;-41
2022/01/19 07:54:11;;;;;;;26.52;8.18;;;;;;;;;;4994637;28;20026;-46
2022/01/19 07:56:37;;;;;;;16.42;7.15;;;;;;;;;;4993134;28;20053;-44
2022/01/19 07:59:03;;;;;;;17.98;8.88;;;;;;;;;;4993611;28;20411;-44
2022/01/19 08:01:31;;;;;;;17.60;8.32;;;;;;;;;;4994037;28;20104;-47
2022/01/19 08:04:00;;;;;;;21.20;7.82;;;;;;;;;;4994372;28;20426;-48
2022/01/19 08:06:26;;;;;;;16.48;8.10;;;;;;;;;;4994096;28;20021;-43
2022/01/19 08:08:52;;;;;;;20.67;9.63;;;;;;;;;;4993933;28;20424;-47
2022/01/19 08:11:18;;;;;;;19.45;8.05;;;;;;;;;;4993566;28;20470;-46
2022/01/19 08:13:43;;;;;;;17.38;8.35;;;;;;;;;;4993982;28;20034;-46
2022/01/19 08:16:08;;;;;;;13.82;7.80;;;;;;;;;;4994076;28;20037;-48
2022/01/19 08:18:34;;;;;;;20.40;8.30;;;;;;;;;;4994107;28;20046;-45
2022/01/19 08:21:00;;;;;;;17.98;7.53;;;;;;;;;;4993929;28;20026;-41
2022/01/19 08:23:26;;;;;;;19.15;9.68;;;;;;;;;;4993651;28;20033;-40
2022/01/19 08:25:51;;;;;;;26.25;10.93;;;;;;;;;;4993658;28;20030;-50
2022/01/19 08:28:17;;;;;;;29.13;11.90;;;;;;;;;;4993912;28;20035;-49
2022/01/19 08:30:44;;;;;;;27.17;12.10;;;;;;;;;;4993823;28;20027;-46
2022/01/19 08:33:10;;;;;;;22.52;10.10;;;;;;;;;;4993796;28;20018;-54
2022/01/19 08:35:36;;;;;;;22.20;10.50;;;;;;;;;;4993375;28;20026;-45
2022/01/19 08:38:01;;;;;;;19.92;11.35;;;;;;;;;;4993625;28;20029;-47
2022/01/19 08:40:29;;;;;;;25.83;11.23;;;;;;;;;;4992753;28;20034;-44
2022/01/19 08:42:55;;;;;;;27.52;11.95;;;;;;;;;;4992732;28;20033;-45
2022/01/19 08:45:21;;;;;;;21.98;11.52;;;;;;;;;;4993036;28;20018;-47
2022/01/19 08:47:47;;;;;;;26.85;10.57;;;;;;;;;;4992441;28;20076;-50
2022/01/19 08:50:15;;;;;;;20.88;10.27;;;;;;;;;;4991760;28;20038;-49
2022/01/19 08:52:42;;;;;;;27.42;11.38;;;;;;;;;;4991890;28;20057;-39
2022/01/19 08:55:07;;;;;;;34.50;13.45;;;;;;;;;;4992378;28;20077;-51
2022/01/19 08:57:33;;;;;;;27.60;13.15;;;;;;;;;;4993401;28;20030;-47
2022/01/19 08:59:58;;;;;;;27.10;13.65;;;;;;;;;;4992918;28;20557;-49
2022/01/19 09:02:24;;;;;;;26.77;13.38;;;;;;;;;;4993130;28;20046;-39
2022/01/19 09:04:49;;;;;;;31.90;15.25;;;;;;;;;;4993129;28;20030;-53
2022/01/19 09:07:15;;;;;;;37.50;15.23;;;;;;;;;;4993109;28;20026;-39
2022/01/19 09:09:40;;;;;;;32.83;17.23;;;;;;;;;;4993116;28;20030;-54
2022/01/19 09:12:06;;;;;;;33.38;16.80;;;;;;;;;;4992999;28;20076;-52
2022/01/19 09:14:32;;;;;;;31.08;16.70;;;;;;;;;;4992944;28;20026;-45
2022/01/19 09:16:58;;;;;;;37.15;17.02;;;;;;;;;;4992241;28;20034;-51
2022/01/19 09:19:24;;;;;;;37.70;16.77;;;;;;;;;;4992917;28;20049;-53
2022/01/19 09:21:50;;;;;;;31.73;14.45;;;;;;;;;;4992846;28;20030;-52
2022/01/19 09:24:17;;;;;;;31.58;15.88;;;;;;;;;;4992873;28;20030;-53
2022/01/19 09:26:44;;;;;;;27.45;13.55;;;;;;;;;;4992908;28;20054;-50
2022/01/19 09:29:09;;;;;;;31.65;13.65;;;;;;;;;;4992473;28;20041;-45
2022/01/19 09:31:36;;;;;;;27.70;12.30;;;;;;;;;;4992674;28;20030;-40
2022/01/19 09:34:11;;;;;;;27.63;11.02;;;;;;;;;;4992840;28;20433;-39
2022/01/19 09:36:44;;;;;;;21.88;8.05;;;;;;;;;;4993280;28;20102;-45
2022/01/19 09:39:12;;;;;;;14.68;7.55;;;;;;;;;;4992847;28;20030;-52
2022/01/19 09:41:38;;;;;;;14.82;6.93;;;;;;;;;;4992787;28;20041;-43
2022/01/19 09:44:04;;;;;;;19.55;6.90;;;;;;;;;;4992781;28;20026;-52
2022/01/19 09:46:29;;;;;;;17.10;6.85;;;;;;;;;;4993040;28;20018;-44
2022/01/19 09:48:58;;;;;;;17.17;7.57;;;;;;;;;;4992403;28;20068;-50
2022/01/19 09:51:23;;;;;;;14.38;6.32;;;;;;;;;;4991562;28;20076;-47
2022/01/19 09:53:49;;;;;;;14.65;7.15;;;;;;;;;;4991499;28;20034;-49
2022/01/19 09:56:19;;;;;;;15.52;7.00;;;;;;;;;;4992984;28;20070;-47
2022/01/19 09:58:45;;;;;;;17.45;6.82;;;;;;;;;;4992948;28;20113;-47
2022/01/19 10:01:10;;;;;;;15.52;6.25;;;;;;;;;;4992344;28;20027;-49
2022/01/19 10:03:36;;;;;;;20.17;6.57;;;;;;;;;;4993326;28;20034;-46
2022/01/19 10:06:09;;;;;;;17.25;6.40;;;;;;;;;;4995502;28;20034;-46
2022/01/19 10:08:44;;;;;;;13.45;5.40;;;;;;;;;;4996669;28;20031;-49
2022/01/19 10:17:03;;;;;;;19.25;7.00;;;;;;;;;;4996498;28;20034;-48
2022/01/19 10:19:37;;;;;;;13.55;6.60;;;;;;;;;;4996124;28;20394;-46
2022/01/19 10:22:22;;;;;;;16.52;6.63;;;;;;;;;;4996290;28;20034;-44
2022/01/19 10:24:53;;;;;;;16.98;6.40;;;;;;;;;;4996288;28;20052;-46
2022/01/19 10:27:19;;;;;;;14.13;5.72;;;;;;;;;;4995865;28;20113;-44
2022/01/19 10:29:46;;;;;;;13.50;6.30;;;;;;;;;;4996292;28;20121;-44
2022/01/19 10:32:12;;;;;;;17.60;6.47;;;;;;;;;;4996230;28;20109;-49
2022/01/19 10:34:38;;;;;;;15.57;6.90;;;;;;;;;;4996095;28;20124;-48
2022/01/19 10:37:05;;;;;;;21.15;6.70;;;;;;;;;;4996146;28;20073;-45
2022/01/19 10:39:48;;;;;;;12.95;5.93;;;;;;;;;;4995951;28;20147;-47
2022/01/19 10:42:19;;;;;;;15.18;5.80;;;;;;;;;;4995698;28;20028;-46
2022/01/19 10:44:44;;;;;;;;;;;;;;;;;;4996389;28;20034;-48
2022/01/19 10:47:10;;;;;;;11.95;5.47;;;;;;;;;;4995839;28;20009;-44
2022/01/19 10:49:56;;;;;;;13.65;5.70;;;;;;;;;;4995861;28;20023;-49
2022/01/19 10:52:44;;;;;;;16.27;5.82;;;;;;;;;;4995783;28;20037;-47
2022/01/19 10:55:13;;;;;;;15.52;5.63;;;;;;;;;;4995639;28;20088;-48
2022/01/19 10:57:41;;;;;;;14.03;5.53;;;;;;;;;;4995646;28;20391;-40
2022/01/19 11:00:22;;;;;;;12.27;5.25;;;;;;;;;;4995465;28;20030;-45
2022/01/19 11:02:50;;;;;;;15.38;6.18;;;;;;;;;;4995166;28;20054;-49
2022/01/19 11:05:16;;;;;;;15.75;5.32;;;;;;;;;;4995874;28;20026;-50
2022/01/19 11:07:42;;;;;;;23.25;6.35;;;;;;;;;;4995276;28;20026;-41
2022/01/19 11:10:18;;;;;;;25.33;7.85;;;;;;;;;;4995156;28;20482;-40
2022/01/19 11:12:55;;;;;;;16.00;6.50;;;;;;;;;;4995435;28;20041;-49
2022/01/19 11:15:20;;;;;;;15.20;5.47;;;;;;;;;;4995451;28;20378;-47
2022/01/19 11:17:48;;;;;;;24.42;6.03;;;;;;;;;;4994520;28;20026;-46
2022/01/19 11:20:17;;;;;;;13.90;5.53;;;;;;;;;;4994940;28;20474;-46
2022/01/19 11:22:49;;;;;;;14.10;5.20;;;;;;;;;;4995158;28;20050;-44
2022/01/19 11:25:35;;;;;;;11.90;6.25;;;;;;;;;;4995091;28;20030;-46
2022/01/19 11:28:01;;;;;;;18.00;7.68;;;;;;;;;;4994882;28;20110;-45
2022/01/19 11:30:31;;;;;;;17.50;6.15;;;;;;;;;;4994679;28;20121;-46
2022/01/19 11:33:24;;;;;;;11.93;5.93;;;;;;;;;;4994850;28;20453;-41
2022/01/19 11:35:55;;;;;;;14.18;4.93;;;;;;;;;;4994684;28;20352;-42
2022/01/19 11:38:31;;;;;;;10.45;4.03;;;;;;;;;;4994581;28;20026;-46
2022/01/19 11:41:03;;;;;;;10.60;4.82;;;;;;;;;;4994595;28;20092;-43
2022/01/19 11:43:30;;;;;;;12.27;5.55;;;;;;;;;;4994608;28;20033;-46
2022/01/19 11:45:58;;;;;;;13.73;5.57;;;;;;;;;;4994819;28;20037;-48
2022/01/19 11:48:26;;;;;;;20.63;5.95;;;;;;;;;;4994394;28;20458;-41
2022/01/19 11:50:54;;;;;;;16.17;5.40;;;;;;;;;;4994778;28;20035;-47
2022/01/19 11:53:20;;;;;;;17.38;5.72;;;;;;;;;;4994619;28;20026;-51
2022/01/19 11:56:08;;;;;;;10.35;4.60;;;;;;;;;;4994611;28;20019;-44
2022/01/19 11:58:34;;;;;;;17.60;5.55;;;;;;;;;;4994561;28;20030;-42
2022/01/19 12:01:00;;;;;;;15.23;5.75;;;;;;;;;;4993939;28;20098;-46
2022/01/19 12:03:30;;;;;;;8.95;4.25;;;;;;;;;;4994461;28;20026;-44
2022/01/19 12:05:56;;;;;;;13.03;5.20;;;;;;;;;;4994438;28;20076;-46
2022/01/19 12:08:36;;;;;;;16.30;5.70;;;;;;;;;;4994381;28;20030;-44
2022/01/19 12:11:23;;;;;;;15.73;4.93;;;;;;;;;;4994352;28;20030;-46
2022/01/19 12:14:07;;;;;;;13.77;5.40;;;;;;;;;;4993971;28;20605;-43
2022/01/19 12:19:06;;;;;;;16.90;4.93;;;;;;;;;;4993886;28;20428;-47
2022/01/19 12:21:32;;;;;;;15.00;5.18;;;;;;;;;;4994010;28;20066;-48
2022/01/19 12:24:44;;;;;;;14.20;5.30;;;;;;;;;;4993579;28;20084;-44
2022/01/19 12:27:12;;;;;;;10.43;4.68;;;;;;;;;;4975264;28;20109;-42
2022/01/19 12:29:43;;;;;;;13.48;4.85;;;;;;;;;;4993634;28;20050;-43
2022/01/19 12:32:17;;;;;;;18.20;5.82;;;;;;;;;;4993467;28;20533;-45
2022/01/19 12:34:42;;;;;;;14.18;5.18;;;;;;;;;;4993388;28;20359;-47
2022/01/19 12:37:09;;;;;;;19.80;5.57;;;;;;;;;;4993621;28;20093;-43
2022/01/19 12:39:37;;;;;;;16.80;5.25;;;;;;;;;;4993577;28;20019;-46
2022/01/19 12:42:04;;;;;;;15.75;4.90;;;;;;;;;;4993527;28;20524;-46
2022/01/19 12:44:35;;;;;;;14.98;4.60;;;;;;;;;;4993461;28;20061;-45
2022/01/19 12:47:02;;;;;;;13.18;5.25;;;;;;;;;;4994073;28;20111;-47
2022/01/19 12:49:29;;;;;;;11.98;4.55;;;;;;;;;;4993362;28;20125;-45
2022/01/19 12:51:55;;;;;;;10.02;4.50;;;;;;;;;;4993804;28;20041;-48
2022/01/19 12:54:29;;;;;;;14.10;4.63;;;;;;;;;;4993601;28;20022;-45
2022/01/19 12:56:55;;;;;;;12.45;5.22;;;;;;;;;;4993574;28;20026;-48
2022/01/19 12:59:21;;;;;;;18.55;4.97;;;;;;;;;;4993135;28;20026;-45
2022/01/19 13:01:46;;;;;;;21.45;4.60;;;;;;;;;;4993211;28;20057;-44
2022/01/19 13:04:26;;;;;;;8.68;4.45;;;;;;;;;;4993424;28;20026;-44
2022/01/19 13:06:55;;;;;;;14.05;4.32;;;;;;;;;;4993315;28;20034;-43
2022/01/19 13:09:29;;;;;;;17.27;5.55;;;;;;;;;;4993518;28;20032;-46
2022/01/19 13:11:55;;;;;;;12.30;4.57;;;;;;;;;;4993068;28;20034;-47
2022/01/19 13:14:23;;;;;;;11.77;5.13;;;;;;;;;;4993223;28;20033;-44
2022/01/19 13:16:53;;;;;;;13.38;5.30;;;;;;;;;;4993303;28;20031;-43
2022/01/19 13:19:25;;;;;;;9.75;4.00;;;;;;;;;;4993176;28;20033;-44
2022/01/19 13:21:59;;;;;;;8.15;4.00;;;;;;;;;;4993296;28;20410;-48
2022/01/19 13:24:26;;;;;;;9.20;4.20;;;;;;;;;;4993309;28;20026;-47
2022/01/19 13:26:57;;;;;;;13.35;4.72;;;;;;;;;;4993141;28;20030;-48
2022/01/19 13:29:25;;;;;;;15.80;5.40;;;;;;;;;;4993249;28;20418;-44
2022/01/19 13:31:57;;;;;;;11.82;4.38;;;;;;;;;;4993253;28;20030;-44
2022/01/19 13:34:23;;;;;;;12.35;4.93;;;;;;;;;;4993189;28;20026;-44
2022/01/19 13:36:54;;;;;;;18.52;5.68;;;;;;;;;;4993030;28;20029;-44
2022/01/19 13:39:22;;;;;;;15.80;5.28;;;;;;;;;;4993270;28;20027;-46
2022/01/19 13:41:50;;;;;;;11.00;4.93;;;;;;;;;;4996983;28;20129;-42
2022/01/19 13:44:21;;;;;;;17.42;5.20;;;;;;;;;;4996803;28;20402;-45
2022/01/19 13:46:46;;;;;;;;;;;;;;;;;;4997258;28;20033;-44
2022/01/19 13:49:13;;;;;;;14.00;4.85;;;;;;;;;;4995206;28;19913;-44
2022/01/19 13:51:41;;;;;;;16.08;4.75;;;;;;;;;;4996711;28;20026;-44
2022/01/19 13:54:07;;;;;;;25.65;6.45;;;;;;;;;;4996748;28;20030;-44
2022/01/19 13:56:37;;;;;;;12.73;4.13;;;;;;;;;;4996468;28;20072;-43
2022/01/19 13:59:24;;;;;;;14.38;4.32;;;;;;;;;;4996695;28;20026;-41
2022/01/19 14:02:01;;;;;;;13.82;4.88;;;;;;;;;;4996352;28;20376;-43
2022/01/19 14:04:30;;;;;;;15.10;4.07;;;;;;;;;;4996730;28;20026;-46
2022/01/19 14:07:09;;;;;;;14.05;5.18;;;;;;;;;;4996654;28;20029;-46
2022/01/19 14:09:35;;;;;;;12.23;3.90;;;;;;;;;;4996522;28;20419;-47
2022/01/19 14:12:10;;;;;;;10.88;3.70;;;;;;;;;;4996371;28;20380;-45
2022/01/19 14:14:36;;;;;;;14.05;4.20;;;;;;;;;;4996512;28;20034;-44
2022/01/19 14:17:22;;;;;;;8.23;3.75;;;;;;;;;;4996373;28;20097;-44
2022/01/19 14:19:49;;;;;;;11.13;3.50;;;;;;;;;;4996089;28;20498;-46
2022/01/19 14:22:21;;;;;;;8.95;3.28;;;;;;;;;;4996000;28;20557;-44
2022/01/19 14:24:47;;;;;;;8.70;3.65;;;;;;;;;;4995986;28;20482;-45
2022/01/19 14:27:24;;;;;;;10.98;4.38;;;;;;;;;;4996007;28;20026;-43
2022/01/19 14:29:59;;;;;;;10.30;4.07;;;;;;;;;;4995847;28;20578;-43
2022/01/19 14:32:46;;;;;;;14.07;3.70;;;;;;;;;;4995814;28;20505;-43
2022/01/19 14:35:24;;;;;;;12.45;4.65;;;;;;;;;;4996156;28;20034;-43
2022/01/19 14:38:05;;;;;;;11.25;4.68;;;;;;;;;;4996066;28;20026;-42
2022/01/19 14:40:31;;;;;;;;;;;;;;;;;;4996372;28;20037;-44
2022/01/19 14:42:57;;;;;;;5.47;3.42;;;;;;;;;;4995941;28;19914;-46
2022/01/19 14:45:28;;;;;;;18.80;4.68;;;;;;;;;;4995740;28;20352;-45
2022/01/19 14:47:55;;;;;;;13.75;4.88;;;;;;;;;;4996065;28;20101;-44
2022/01/19 14:50:36;;;;;;;17.85;5.30;;;;;;;;;;4995380;28;20474;-46
2022/01/19 14:53:04;;;;;;;14.93;4.25;;;;;;;;;;4994753;28;20030;-46
2022/01/19 14:55:33;;;;;;;12.10;4.10;;;;;;;;;;4995337;28;20030;-44
2022/01/19 14:58:00;;;;;;;9.27;4.55;;;;;;;;;;4995417;28;20390;-45
2022/01/19 15:00:28;;;;;;;20.10;5.22;;;;;;;;;;4995346;28;20041;-47
2022/01/19 15:02:59;;;;;;;13.05;5.03;;;;;;;;;;4995247;28;20046;-42
2022/01/19 15:05:26;;;;;;;23.58;5.45;;;;;;;;;;4994197;28;20022;-43
2022/01/19 15:07:52;;;;;;;12.27;3.95;;;;;;;;;;4995376;28;20097;-45
2022/01/19 15:10:19;;;;;;;42.85;6.03;;;;;;;;;;4995304;28;20470;-46
2022/01/19 15:12:45;;;;;;;19.40;5.72;;;;;;;;;;4995217;28;20022;-45
2022/01/19 15:15:11;;;;;;;11.85;5.20;;;;;;;;;;4995097;28;20026;-43
2022/01/19 15:17:38;;;;;;;15.23;6.00;;;;;;;;;;4994950;28;20142;-42
2022/01/19 15:20:08;;;;;;;27.45;7.05;;;;;;;;;;4995111;28;20499;-41
2022/01/19 15:22:33;;;;;;;53.22;12.10;;;;;;;;;;4995005;28;20030;-40
2022/01/19 15:25:00;;;;;;;42.45;11.75;;;;;;;;;;4994954;28;20040;-47
2022/01/19 15:27:25;;;;;;;29.67;9.00;;;;;;;;;;4995234;28;20029;-44
2022/01/19 15:29:51;;;;;;;21.08;6.93;;;;;;;;;;4994922;28;20485;-42
2022/01/19 15:32:17;;;;;;;26.20;6.65;;;;;;;;;;4994823;28;20426;-46
2022/01/19 15:34:43;;;;;;;15.80;6.30;;;;;;;;;;4995111;28;20026;-42
2022/01/19 15:37:09;;;;;;;19.83;6.88;;;;;;;;;;4995085;28;20034;-42
2022/01/19 15:39:35;;;;;;;16.92;5.88;;;;;;;;;;4994500;28;20027;-42
2022/01/19 15:42:01;;;;;;;15.48;5.63;;;;;;;;;;4994343;28;20035;-45
2022/01/19 15:44:27;;;;;;;20.20;5.63;;;;;;;;;;4994417;28;20089;-42
2022/01/19 15:46:53;;;;;;;16.45;4.88;;;;;;;;;;4994731;28;20026;-44
2022/01/19 15:49:19;;;;;;;14.90;5.50;;;;;;;;;;4994336;28;20130;-41
2022/01/19 15:51:44;;;;;;;15.38;6.57;;;;;;;;;;4994464;28;20113;-45
2022/01/19 15:54:11;;;;;;;18.38;5.03;;;;;;;;;;4993612;28;20035;-44
2022/01/19 15:56:42;;;;;;;14.25;5.07;;;;;;;;;;4994651;28;20518;-42
2022/01/19 15:59:08;;;;;;;11.07;4.90;;;;;;;;;;4994498;28;20034;-47
2022/01/19 16:01:33;;;;;;;12.82;5.15;;;;;;;;;;4994250;28;20137;-42